Time;durP1;ratioP1;P1;durP2;ratioP2;P2;SDS_P1;SDS_P2;PMS_P1;PMS_P2;Temp;Humidity;BMP_temperature;BMP_pressure;BME280_temperature;BME280_humidity;BME280_pressure;Samples;Min_cycle;Max_cycle;Signal;HPM_P1;HPM_P2
2022/09/17 00:02:24;;;;;;;2.20;1.90;;;;;;;;;;6182066;23;20012;-77
2022/09/17 00:04:51;;;;;;;2.47;1.70;;;;;;;;;;6181715;23;20004;-77
2022/09/17 00:07:17;;;;;;;1.63;1.52;;;14.00;99.90;;;;;;6182203;23;20011;-76
2022/09/17 00:09:43;;;;;;;2.08;1.60;;;;;;;;;;6181935;23;20458;-76
2022/09/17 00:12:09;;;;;;;1.58;1.48;;;14.00;95.40;;;;;;6182008;23;20011;-76
2022/09/17 00:14:35;;;;;;;3.95;1.42;;;;;;;;;;6181114;23;20092;-76
2022/09/17 00:17:01;;;;;;;6.05;2.15;;;;;;;;;;6182392;23;20005;-76
2022/09/17 00:19:27;;;;;;;2.15;1.80;;;;;;;;;;6181917;23;20317;-76
2022/09/17 00:21:53;;;;;;;3.03;1.75;;;13.40;99.90;;;;;;6182059;23;20001;-76
2022/09/17 00:24:20;;;;;;;6.32;1.90;;;13.30;94.70;;;;;;6181858;23;20009;-76
2022/09/17 00:26:47;;;;;;;1.58;1.23;;;13.30;94.90;;;;;;6181511;23;20011;-76
2022/09/17 00:29:13;;;;;;;6.93;1.70;;;;;;;;;;6181550;23;20013;-77
2022/09/17 00:31:39;;;;;;;1.40;1.30;;;;;;;;;;6181884;23;20352;-76
2022/09/17 00:34:05;;;;;;;3.33;1.88;;;13.00;99.90;;;;;;6181549;23;20591;-77
2022/09/17 00:36:35;;;;;;;4.53;2.13;;;13.30;94.90;;;;;;6181995;23;20318;-76
2022/09/17 00:39:01;;;;;;;2.45;1.73;;;13.30;94.90;;;;;;6181876;23;20001;-76
2022/09/17 00:41:30;;;;;;;1.83;1.70;;;14.10;96.20;;;;;;6181786;23;20424;-76
2022/09/17 00:43:59;;;;;;;2.25;1.48;;;13.50;94.60;;;;;;6181901;23;20141;-76
2022/09/17 00:46:41;;;;;;;1.42;1.25;;;13.30;99.90;;;;;;6181757;23;20005;-76
2022/09/17 00:49:17;;;;;;;2.58;2.17;;;13.60;94.40;;;;;;6181748;23;20020;-76
2022/09/17 00:51:52;;;;;;;2.33;1.25;;;13.70;94.40;;;;;;6181739;23;20455;-76
2022/09/17 00:54:18;;;;;;;7.95;1.58;;;13.80;99.90;;;;;;6181804;23;20020;-76
2022/09/17 00:56:44;;;;;;;3.58;1.90;;;;;;;;;;6181313;23;20016;-76
2022/09/17 00:59:10;;;;;;;3.90;2.25;;;14.10;99.90;;;;;;6181866;23;20001;-76
2022/09/17 01:01:36;;;;;;;3.17;1.73;;;13.70;99.90;;;;;;6181476;23;20322;-76
2022/09/17 01:04:02;;;;;;;1.95;1.30;;;13.30;96.50;;;;;;6181871;23;20427;-76
2022/09/17 01:06:36;;;;;;;2.42;1.45;;;13.60;94.50;;;;;;6182175;23;20009;-76
2022/09/17 01:09:20;;;;;;;4.25;1.65;;;13.70;94.40;;;;;;6179789;23;20013;-77
2022/09/17 01:12:16;;;;;;;2.63;1.73;;;13.90;94.10;;;;;;6181689;23;20002;-77
2022/09/17 01:14:42;;;;;;;3.27;1.90;;;;;;;;;;6181337;23;20005;-76
2022/09/17 01:17:32;;;;;;;2.47;1.48;;;13.90;94.00;;;;;;6181687;23;20086;-76
2022/09/17 01:19:58;;;;;;;2.45;1.23;;;;;;;;;;6181650;23;20016;-77
2022/09/17 01:22:44;;;;;;;2.05;1.55;;;13.80;94.80;;;;;;6181842;23;20388;-77
2022/09/17 01:25:30;;;;;;;3.60;1.55;;;13.80;99.90;;;;;;6181460;23;20005;-76
2022/09/17 01:28:14;;;;;;;3.25;1.80;;;14.00;96.40;;;;;;6181881;23;20016;-77
2022/09/17 01:31:00;;;;;;;1.77;1.33;;;14.00;99.90;;;;;;6181289;23;20436;-76
2022/09/17 01:33:40;;;;;;;1.42;1.33;;;14.30;94.20;;;;;;6183480;23;20005;-77
2022/09/17 01:36:16;;;;;;;5.55;1.73;;;14.30;93.90;;;;;;6183445;23;20024;-76
2022/09/17 01:38:51;;;;;;;2.15;1.90;;;14.10;99.90;;;;;;6183874;23;20079;-76
2022/09/17 01:41:49;;;;;;;5.43;1.42;;;14.20;99.90;;;;;;6183504;23;20005;-76
2022/09/17 01:44:27;;;;;;;1.48;1.20;;;14.70;99.70;;;;;;6182886;23;20088;-77
2022/09/17 01:47:02;;;;;;;2.65;1.75;;;14.50;99.90;;;;;;6183305;23;20051;-76
2022/09/17 01:49:30;;;;;;;1.65;1.23;;;14.40;94.00;;;;;;6183432;23;20471;-76
2022/09/17 01:51:56;;;;;;;2.65;1.75;;;;;;;;;;6183522;23;20005;-76
2022/09/17 01:54:36;;;;;;;1.50;1.40;;;14.40;93.50;;;;;;6183230;23;20013;-76
2022/09/17 01:57:12;;;;;;;2.25;1.50;;;14.50;93.20;;;;;;6183371;23;20047;-76
2022/09/17 01:59:49;;;;;;;4.88;1.50;;;14.40;93.20;;;;;;6183452;23;19997;-77
2022/09/17 02:02:28;;;;;;;4.32;1.33;;;14.60;99.30;;;;;;6157265;23;20344;-75
2022/09/17 02:05:26;;;;;;;2.60;1.45;;;14.60;92.40;;;;;;6183621;23;20005;-75
2022/09/17 02:07:55;;;;;;;1.30;1.20;;;;;;;;;;6183204;23;20012;-76
2022/09/17 02:10:27;;;;;;;4.10;1.42;;;14.40;98.50;;;;;;6183401;23;20343;-76
2022/09/17 02:12:57;;;;;;;1.65;1.08;;;14.60;98.30;;;;;;6183164;23;20001;-77
2022/09/17 02:15:30;;;;;;;3.80;1.20;;;14.70;98.20;;;;;;6182488;23;20023;-76
2022/09/17 02:18:04;;;;;;;1.52;1.05;;;14.50;98.10;;;;;;6183266;23;19997;-76
2022/09/17 02:20:42;;;;;;;1.85;1.27;;;14.40;91.60;;;;;;6183067;23;20009;-76
2022/09/17 02:23:17;;;;;;;1.60;1.00;;;14.40;91.40;;;;;;6183017;23;20016;-76
2022/09/17 02:26:05;;;;;;;1.23;1.10;;;14.50;96.30;;;;;;6182157;23;19998;-76
2022/09/17 02:28:50;;;;;;;2.38;0.88;;;14.10;97.60;;;;;;6182755;23;20013;-76
2022/09/17 02:31:16;;;;;;;1.55;1.20;;;;;;;;;;6183192;23;20009;-76
2022/09/17 02:33:47;;;;;;;2.17;1.30;;;14.20;91.10;;;;;;6183053;23;20009;-76
2022/09/17 02:36:13;;;;;;;1.73;1.35;;;;;;;;;;6183015;23;20007;-76
2022/09/17 02:38:42;;;;;;;1.23;1.13;;;14.10;91.20;;;;;;6182600;23;20483;-76
2022/09/17 02:41:08;;;;;;;2.65;1.48;;;;;;;;;;6156573;23;20332;-76
2022/09/17 02:43:44;;;;;;;1.42;1.10;;;13.90;91.30;;;;;;6182810;23;20009;-76
2022/09/17 02:46:19;;;;;;;3.25;1.95;;;14.10;91.30;;;;;;6182750;23;20009;-76
2022/09/17 02:48:51;;;;;;;1.02;0.90;;;13.70;91.60;;;;;;6182700;23;20013;-76
2022/09/17 02:51:42;;;;;;;2.25;1.52;;;14.10;91.20;;;;;;6182851;23;20444;-76
2022/09/17 02:54:23;;;;;;;1.17;0.93;;;14.00;90.90;;;;;;6090908;23;20093;-76
2022/09/17 02:56:56;;;;;;;3.53;1.58;;;14.20;90.80;;;;;;6090880;23;20037;-76
2022/09/17 02:59:49;;;;;;;2.10;1.30;;;14.10;97.50;;;;;;6091153;23;20016;-75
2022/09/17 03:02:25;;;;;;;4.82;1.42;;;14.20;97.60;;;;;;6091364;23;20002;-76
2022/09/17 03:04:52;;;;;;;1.05;1.05;;;14.10;96.50;;;;;;6091393;23;20565;-76
2022/09/17 03:07:20;;;;;;;0.82;0.82;;;13.90;91.30;;;;;;6090945;23;20003;-76
2022/09/17 03:09:46;;;;;;;2.70;1.83;;;;;;;;;;6091426;23;20014;-76
2022/09/17 03:12:12;;;;;;;1.55;1.25;;;;;;;;;;6091074;23;20126;-76
2022/09/17 03:14:38;;;;;;;1.35;1.10;;;;;;;;;;6090604;23;20449;-76
2022/09/17 03:17:04;;;;;;;0.80;0.80;;;;;;;;;;6091132;23;20011;-76
2022/09/17 03:19:30;;;;;;;1.70;0.88;;;;;;;;;;6091188;23;20025;-76
2022/09/17 03:21:56;;;;;;;0.82;0.82;;;;;;;;;;6090746;23;20021;-77
2022/09/17 03:24:22;;;;;;;1.17;0.93;;;;;;;;;;6091272;23;20421;-76
2022/09/17 03:26:49;;;;;;;1.35;1.25;;;;;;;;;;6090887;23;20007;-76
2022/09/17 03:29:15;;;;;;;1.20;0.83;;;;;;;;;;6091323;23;20018;-76
2022/09/17 03:31:41;;;;;;;0.90;0.90;;;13.10;98.40;;;;;;6156881;23;20084;-76
2022/09/17 03:34:07;;;;;;;1.00;1.00;;;;;;;;;;6182480;23;20523;-76
2022/09/17 03:36:33;;;;;;;6.13;1.08;;;12.80;92.00;;;;;;6182101;23;20020;-76
2022/09/17 03:38:59;;;;;;;1.00;1.00;;;;;;;;;;6182357;23;20052;-76
2022/09/17 03:41:25;;;;;;;1.20;1.10;;;;;;;;;;6182182;23;20048;-76
2022/09/17 03:43:52;;;;;;;1.23;1.13;;;12.90;98.60;;;;;;6182680;23;20005;-75
2022/09/17 03:46:18;;;;;;;1.70;1.25;;;13.40;98.60;;;;;;6181919;23;20025;-76
2022/09/17 03:48:44;;;;;;;0.75;0.75;;;13.00;92.10;;;;;;6182513;23;20017;-76
2022/09/17 03:51:11;;;;;;;0.95;0.80;;;;;;;;;;6182011;23;19997;-76
2022/09/17 03:53:37;;;;;;;2.22;1.38;;;;;;;;;;6182287;23;20004;-76
2022/09/17 03:56:04;;;;;;;0.80;0.80;;;12.90;91.00;;;;;;6181723;23;20015;-75
2022/09/17 03:58:30;;;;;;;;;;;12.90;91.20;;;;;;6182856;23;20083;-76
2022/09/17 04:00:56;;;;;;;1.35;0.80;;;12.80;97.70;;;;;;6182359;23;20398;-76
2022/09/17 04:03:26;;;;;;;2.55;1.30;;;12.90;90.90;;;;;;6182237;23;20028;-77
2022/09/17 04:05:52;;;;;;;0.70;0.70;;;;;;;;;;6155544;23;20017;-75
2022/09/17 04:08:19;;;;;;;1.05;0.88;;;13.00;92.20;;;;;;6182361;23;20005;-76
2022/09/17 04:10:45;;;;;;;0.85;0.85;;;12.80;97.60;;;;;;6182088;23;20020;-76
2022/09/17 04:13:12;;;;;;;0.70;0.63;;;12.90;97.70;;;;;;6182107;23;20001;-76
2022/09/17 04:15:38;;;;;;;0.70;0.70;;;;;;;;;;6181237;23;20009;-76
2022/09/17 04:18:04;;;;;;;0.80;0.80;;;12.60;91.40;;;;;;6182458;23;20017;-75
2022/09/17 04:20:30;;;;;;;0.73;0.73;;;;;;;;;;6181728;23;20005;-76
2022/09/17 04:22:56;;;;;;;0.90;0.90;;;;;;;;;;6181906;23;20009;-76
2022/09/17 04:25:22;;;;;;;0.80;0.80;;;;;;;;;;6181828;23;20009;-76
2022/09/17 04:27:48;;;;;;;0.70;0.70;;;;;;;;;;6182070;23;20024;-76
2022/09/17 04:30:14;;;;;;;0.90;0.90;;;12.40;91.90;;;;;;6182052;23;20352;-77
2022/09/17 04:32:40;;;;;;;2.40;0.80;;;;;;;;;;6181696;23;20094;-76
2022/09/17 04:35:07;;;;;;;3.90;2.92;;;;;;;;;;6181677;23;20395;-76
2022/09/17 04:37:33;;;;;;;2.08;1.25;;;12.20;98.30;;;;;;6182076;23;20001;-76
2022/09/17 04:39:59;;;;;;;1.20;1.10;;;;;;;;;;6181777;23;20114;-76
2022/09/17 04:42:25;;;;;;;1.15;0.80;;;;;;;;;;6181988;23;20001;-76
2022/09/17 04:44:50;;;;;;;0.75;0.75;;;12.20;95.60;;;;;;6181612;23;20008;-76
2022/09/17 04:47:16;;;;;;;1.15;0.85;;;;;;;;;;6181903;23;20001;-76
2022/09/17 04:49:42;;;;;;;1.75;0.90;;;;;;;;;;6181539;23;20029;-75
2022/09/17 04:52:08;;;;;;;3.80;0.82;;;;;;;;;;6181852;23;20470;-76
2022/09/17 04:54:34;;;;;;;0.82;0.82;;;11.70;99.80;;;;;;6181583;23;20009;-76
2022/09/17 04:57:00;;;;;;;1.88;0.57;;;11.80;99.70;;;;;;6181704;23;20017;-76
2022/09/17 04:59:26;;;;;;;0.80;0.80;;;;;;;;;;6181627;23;20020;-77
2022/09/17 05:01:52;;;;;;;4.38;0.75;;;;;;;;;;6155259;23;20005;-76
2022/09/17 05:04:17;;;;;;;10.45;1.08;;;11.60;99.90;;;;;;6181572;23;20001;-76
2022/09/17 05:06:43;;;;;;;1.10;1.00;;;11.50;99.90;;;;;;6182649;23;20001;-76
2022/09/17 05:09:09;;;;;;;4.07;1.10;;;;;;;;;;6183701;23;20012;-76
2022/09/17 05:11:35;;;;;;;1.05;0.82;;;;;;;;;;6183961;23;20013;-75
2022/09/17 05:14:01;;;;;;;3.15;1.00;;;11.50;99.90;;;;;;6183518;23;20458;-76
2022/09/17 05:16:27;;;;;;;1.42;1.25;;;;;;;;;;6183361;23;20005;-76
2022/09/17 05:18:52;;;;;;;0.88;0.88;;;11.60;99.90;;;;;;6183528;23;20043;-75
2022/09/17 05:21:19;;;;;;;3.60;1.00;;;11.40;94.00;;;;;;6183455;23;20302;-76
2022/09/17 05:23:46;;;;;;;1.02;0.90;;;11.50;99.90;;;;;;6183628;23;20013;-76
2022/09/17 05:26:12;;;;;;;1.40;0.93;;;;;;;;;;6183724;23;20008;-77
2022/09/17 05:28:38;;;;;;;1.33;0.75;;;;;;;;;;6183426;23;20444;-76
2022/09/17 05:31:05;;;;;;;6.32;1.08;;;;;;;;;;6183355;23;20009;-76
2022/09/17 05:33:31;;;;;;;3.72;1.00;;;;;;;;;;6183312;23;20021;-76
2022/09/17 05:35:57;;;;;;;0.80;0.80;;;;;;;;;;6156801;23;20011;-76
2022/09/17 05:38:22;;;;;;;1.17;0.82;;;11.70;99.60;;;;;;6156754;23;20005;-75
2022/09/17 05:40:49;;;;;;;4.40;1.67;;;;;;;;;;6183460;23;20032;-75
2022/09/17 05:43:15;;;;;;;6.05;1.10;;;;;;;;;;6183520;23;20001;-76
2022/09/17 05:45:41;;;;;;;1.55;1.10;;;;;;;;;;6183017;23;20001;-75
2022/09/17 05:48:10;;;;;;;9.35;1.50;;;11.90;92.20;;;;;;6183039;23;20376;-76
2022/09/17 05:50:36;;;;;;;1.00;1.00;;;;;;;;;;6178180;23;20088;-76
2022/09/17 05:53:04;;;;;;;0.63;0.63;;;11.80;96.50;;;;;;6180219;23;20083;-77
2022/09/17 05:55:30;;;;;;;1.67;1.10;;;;;;;;;;6180678;23;20005;-76
2022/09/17 05:57:56;;;;;;;0.93;0.90;;;;;;;;;;6178481;23;20088;-76
2022/09/17 06:00:22;;;;;;;0.80;0.80;;;;;;;;;;6179258;23;20013;-76
2022/09/17 06:02:54;;;;;;;0.70;0.70;;;13.20;93.00;;;;;;6177982;23;20351;-76
2022/09/17 06:05:20;;;;;;;2.55;0.98;;;12.00;94.60;;;;;;6178054;23;20012;-76
2022/09/17 06:07:46;;;;;;;7.30;1.00;;;;;;;;;;6177147;23;20076;-76
2022/09/17 06:10:12;;;;;;;4.45;1.20;;;;;;;;;;6178880;23;20012;-76
2022/09/17 06:12:38;;;;;;;1.20;1.20;;;;;;;;;;6178199;23;20009;-76
2022/09/17 06:15:04;;;;;;;1.50;1.40;;;18.00;85.00;;;;;;6178135;23;20011;-76
2022/09/17 06:17:34;;;;;;;2.58;1.00;;;20.60;70.10;;;;;;6177996;23;20009;-76
2022/09/17 06:20:00;;;;;;;4.00;1.30;;;;;;;;;;6177577;23;20033;-76
2022/09/17 06:22:26;;;;;;;0.75;0.75;;;;;;;;;;6152324;23;20440;-75
2022/09/17 06:24:52;;;;;;;0.80;0.80;;;;;;;;;;6178750;23;20005;-75
2022/09/17 06:27:18;;;;;;;0.82;0.80;;;;;;;;;;6178156;23;20001;-75
2022/09/17 06:29:44;;;;;;;1.95;0.80;;;;;;;;;;6179110;23;20047;-75
2022/09/17 06:32:11;;;;;;;2.55;1.58;;;;;;;;;;6177723;23;20087;-75
2022/09/17 06:34:38;;;;;;;0.50;0.40;;;26.10;49.80;;;;;;6177118;23;20464;-75
2022/09/17 06:37:04;;;;;;;2.15;0.30;;;;;;;;;;6178133;23;20011;-75
2022/09/17 06:39:30;;;;;;;0.30;0.30;;;;;;;;;;6178065;23;20016;-75
2022/09/17 06:41:56;;;;;;;0.38;0.30;;;;;;;;;;6177914;23;20012;-75
2022/09/17 06:44:22;;;;;;;3.10;0.55;;;36.50;42.10;;;;;;6177456;23;20016;-75
2022/09/17 06:46:49;;;;;;;0.67;0.40;;;38.30;39.70;;;;;;6177817;23;20013;-76
2022/09/17 06:49:16;;;;;;;0.77;0.40;;;40.60;38.00;;;;;;6177644;23;20042;-76
2022/09/17 06:51:42;;;;;;;1.20;0.50;;;;;;;;;;6177899;23;20333;-77
2022/09/17 06:54:09;;;;;;;0.30;0.30;;;42.90;34.80;;;;;;6177268;23;20005;-77
2022/09/17 06:56:35;;;;;;;1.60;0.10;;;;;;;;;;6130353;23;1127519;-77
2022/09/17 06:59:01;;;;;;;0.50;0.30;;;40.30;35.10;;;;;;6180004;23;20078;-77
2022/09/17 07:01:27;;;;;;;1.98;0.17;;;38.90;35.40;;;;;;6179726;23;20008;-77
2022/09/17 07:03:53;;;;;;;0.23;0.23;;;41.20;32.10;;;;;;6179796;23;20009;-80
2022/09/17 07:06:19;;;;;;;3.05;0.25;;;41.50;30.20;;;;;;6179743;23;20009;-80
2022/09/17 07:08:46;;;;;;;0.65;0.30;;;40.00;30.50;;;;;;6178420;23;20065;-81
2022/09/17 07:11:12;;;;;;;0.65;0.30;;;;;;;;;;6175089;23;20005;-79
2022/09/17 07:13:38;;;;;;;;;;;38.20;28.60;;;;;;6149599;23;20013;-82
2022/09/17 07:16:05;;;;;;;1.02;0.30;;;42.80;31.40;;;;;;6175573;23;19958;-81
2022/09/17 07:18:31;;;;;;;0.00;0.00;;;;;;;;;;6175965;23;20013;-83
2022/09/17 07:20:59;;;;;;;2.30;0.10;;;38.20;26.30;;;;;;6151182;23;20016;-84
2022/09/17 07:23:29;;;;;;;0.20;0.20;;;38.90;28.60;;;;;;6149506;23;20092;-81
2022/09/17 07:25:58;;;;;;;2.25;0.43;;;37.60;26.30;;;;;;6176747;23;20020;-83
2022/09/17 07:28:25;;;;;;;1.48;0.10;;;33.70;27.70;;;;;;6179982;23;20009;-81
2022/09/17 07:30:52;;;;;;;2.88;0.30;;;35.50;34.90;;;;;;6153775;23;20005;-82
2022/09/17 07:33:23;;;;;;;1.13;0.35;;;35.70;28.30;;;;;;6179462;23;20005;-81
2022/09/17 07:35:53;;;;;;;2.10;0.98;;;35.20;28.90;;;;;;6180691;23;20072;-82
2022/09/17 07:38:19;;;;;;;0.35;0.30;;;;;;;;;;6180919;23;20500;-81
2022/09/17 07:40:54;;;;;;;0.95;0.00;;;37.40;26.20;;;;;;6180921;23;20314;-82
2022/09/17 07:43:20;;;;;;;0.75;0.45;;;39.70;32.20;;;;;;6180057;23;20039;-82
2022/09/17 07:45:46;;;;;;;0.32;0.32;;;;;;;;;;6180035;23;20377;-81
2022/09/17 07:48:12;;;;;;;0.40;0.20;;;;;;;;;;6179697;23;20083;-82
2022/09/17 07:50:37;;;;;;;1.23;0.55;;;40.00;32.10;;;;;;6179387;23;20487;-81
2022/09/17 07:53:03;;;;;;;0.10;0.10;;;36.80;32.10;;;;;;6179692;23;19997;-82
2022/09/17 07:55:29;;;;;;;0.40;0.13;;;37.70;30.90;;;;;;6179305;23;20076;-82
2022/09/17 07:57:54;;;;;;;0.55;0.10;;;41.30;29.60;;;;;;6179232;23;20044;-81
2022/09/17 08:00:20;;;;;;;0.40;0.40;;;45.60;28.30;;;;;;6179918;23;20012;-82
2022/09/17 08:02:51;;;;;;;;;;;46.20;25.00;;;;;;6179799;23;20005;-82
2022/09/17 08:05:17;;;;;;;1.42;0.50;;;;;;;;;;6179424;23;19970;-82
2022/09/17 08:07:43;;;;;;;0.17;0.10;;;46.20;27.20;;;;;;6179660;23;20433;-82
2022/09/17 08:10:08;;;;;;;0.50;0.40;;;44.70;28.50;;;;;;6179325;23;20008;-82
2022/09/17 08:12:34;;;;;;;1.02;0.43;;;44.20;25.70;;;;;;6179300;23;20005;-82
2022/09/17 08:15:00;;;;;;;0.25;0.00;;;;;;;;;;6179597;23;20032;-81
2022/09/17 08:17:25;;;;;;;;;;;38.90;24.60;;;;;;6179797;23;20520;-81
2022/09/17 08:19:53;;;;;;;0.93;0.10;;;;;;;;;;6179403;23;19900;-81
2022/09/17 08:22:19;;;;;;;0.73;0.00;;;33.40;34.60;;;;;;6179766;23;20088;-82
2022/09/17 08:24:44;;;;;;;1.05;0.08;;;31.30;35.80;;;;;;6179305;23;20658;-80
2022/09/17 08:27:10;;;;;;;0.00;0.00;;;;;;;;;;6179335;23;20440;-81
2022/09/17 08:29:36;;;;;;;0.52;0.30;;;;;;;;;;6179567;23;20017;-82
2022/09/17 08:32:02;;;;;;;3.20;0.10;;;;;;;;;;6179008;23;20001;-81
2022/09/17 08:34:28;;;;;;;1.88;0.65;;;;;;;;;;6179432;23;20008;-81
2022/09/17 08:36:54;;;;;;;0.33;0.00;;;;;;;;;;6179615;23;20071;-80
2022/09/17 08:39:20;;;;;;;1.92;0.13;;;;;;;;;;6179027;23;20279;-81
2022/09/17 08:42:06;;;;;;;0.50;0.50;;;35.70;27.50;;;;;;6179181;23;20380;-82
2022/09/17 08:44:41;;;;;;;0.95;0.57;;;40.20;25.90;;;;;;6178697;23;20036;-78
2022/09/17 08:47:17;;;;;;;0.32;0.32;;;43.50;24.30;;;;;;6179368;23;20009;-78
2022/09/17 08:49:51;;;;;;;1.35;0.85;;;45.20;27.30;;;;;;6179251;23;20036;-79
2022/09/17 08:52:29;;;;;;;3.03;0.35;;;47.20;23.00;;;;;;6179176;23;20067;-78
2022/09/17 08:55:30;;;;;;;0.95;0.30;;;49.20;25.60;;;;;;6180319;23;20009;-76
2022/09/17 08:58:04;;;;;;;0.98;0.32;;;48.60;21.70;;;;;;6180209;23;20021;-77
2022/09/17 09:00:44;;;;;;;1.25;0.30;;;49.40;24.80;;;;;;6181040;23;20036;-79
2022/09/17 09:03:47;;;;;;;0.30;0.30;;;49.70;24.90;;;;;;6180344;23;20008;-78
2022/09/17 09:06:15;;;;;;;0.50;0.20;;;50.50;25.00;;;;;;6180365;23;20068;-79
2022/09/17 09:09:03;;;;;;;0.40;0.28;;;49.90;22.00;;;;;;6180353;23;20351;-81
2022/09/17 09:11:30;;;;;;;1.20;0.90;;;50.50;24.80;;;;;;6179386;23;20009;-81
2022/09/17 09:14:14;;;;;;;0.35;0.20;;;48.80;21.10;;;;;;6179487;23;20063;-81
2022/09/17 09:16:44;;;;;;;0.90;0.10;;;46.40;21.80;;;;;;6178655;23;20031;-81
2022/09/17 09:19:24;;;;;;;0.82;0.40;;;43.90;23.00;;;;;;6179314;23;20009;-81
2022/09/17 09:21:50;;;;;;;0.73;0.30;;;;;;;;;;6179752;23;20005;-81
2022/09/17 09:24:24;;;;;;;0.57;0.57;;;47.60;21.80;;;;;;6178859;23;20506;-81
2022/09/17 09:27:08;;;;;;;0.40;0.40;;;48.60;23.40;;;;;;6179342;23;20601;-82
2022/09/17 09:30:03;;;;;;;0.32;0.22;;;49.30;21.50;;;;;;6178827;23;20021;-81
2022/09/17 09:32:50;;;;;;;2.00;0.50;;;49.90;23.80;;;;;;6179310;23;19997;-81
2022/09/17 09:35:26;;;;;;;1.13;0.30;;;46.40;21.70;;;;;;6179550;23;20016;-81
2022/09/17 09:38:22;;;;;;;1.00;0.30;;;46.90;21.60;;;;;;6179052;23;20048;-81
2022/09/17 09:40:53;;;;;;;1.58;0.30;;;44.30;22.50;;;;;;6179120;23;20005;-80
2022/09/17 09:43:23;;;;;;;0.30;0.13;;;43.30;21.50;;;;;;6178986;23;20008;-80
2022/09/17 09:46:10;;;;;;;2.85;0.50;;;44.70;21.90;;;;;;6177297;23;20005;-81
2022/09/17 09:49:26;;;;;;;0.52;0.25;;;45.00;21.40;;;;;;6177908;23;20017;-81
2022/09/17 09:52:22;;;;;;;2.75;0.20;;;42.50;21.70;;;;;;6087132;23;20002;-81
2022/09/17 09:54:48;;;;;;;5.75;0.45;;;;;;;;;;6088365;23;20038;-83
2022/09/17 09:57:19;;;;;;;0.20;0.00;;;38.10;23.00;;;;;;6089021;23;20022;-80
2022/09/17 09:59:44;;;;;;;1.58;0.20;;;35.70;27.60;;;;;;6089372;23;20929;-79
2022/09/17 10:02:10;;;;;;;0.47;0.10;;;33.30;28.20;;;;;;6091645;23;20010;-78
2022/09/17 10:04:37;;;;;;;1.52;0.20;;;;;;;;;;6088372;23;20543;-79
2022/09/17 10:07:10;;;;;;;0.10;0.00;;;29.50;26.90;;;;;;6086754;23;20422;-79
2022/09/17 10:09:41;;;;;;;1.08;0.17;;;28.40;28.40;;;;;;6090262;23;20022;-78
2022/09/17 10:12:12;;;;;;;1.17;0.20;;;27.00;38.20;;;;;;6086307;23;20018;-78
2022/09/17 10:14:40;;;;;;;0.30;0.10;;;25.80;29.30;;;;;;6089665;23;20011;-78
2022/09/17 10:17:23;;;;;;;0.90;0.20;;;25.10;39.80;;;;;;6091120;23;20013;-79
2022/09/17 10:20:00;;;;;;;0.05;0.05;;;23.90;42.40;;;;;;6091106;23;20007;-78
2022/09/17 10:22:35;;;;;;;0.73;0.20;;;23.50;31.70;;;;;;6090319;23;20064;-79
2022/09/17 10:25:02;;;;;;;1.17;0.32;;;25.00;31.50;;;;;;6090193;23;20007;-78
2022/09/17 10:27:29;;;;;;;1.05;0.52;;;27.10;37.50;;;;;;6109796;23;20374;-78
2022/09/17 10:30:07;;;;;;;0.25;0.10;;;26.80;39.10;;;;;;6181550;23;20016;-79
2022/09/17 10:32:33;;;;;;;3.55;0.35;;;28.20;37.30;;;;;;6181753;23;19997;-78
2022/09/17 10:35:14;;;;;;;1.83;0.22;;;28.50;29.90;;;;;;6181937;23;20016;-78
2022/09/17 10:37:48;;;;;;;1.02;0.10;;;27.30;30.00;;;;;;6181206;23;20009;-79
2022/09/17 10:40:34;;;;;;;0.10;0.10;;;26.70;30.30;;;;;;6181693;23;20016;-79
2022/09/17 10:43:15;;;;;;;0.20;0.10;;;26.00;30.70;;;;;;6154889;23;20345;-78
2022/09/17 10:45:52;;;;;;;1.45;0.20;;;26.00;41.20;;;;;;6154557;23;20370;-79
2022/09/17 10:48:20;;;;;;;0.32;0.20;;;24.80;31.50;;;;;;6181538;23;20079;-78
2022/09/17 10:50:51;;;;;;;1.45;0.10;;;25.70;31.00;;;;;;6182286;23;20511;-78
2022/09/17 10:53:19;;;;;;;0.82;0.30;;;24.90;31.60;;;;;;6181618;23;20052;-79
2022/09/17 10:56:23;;;;;;;0.13;0.10;;;23.90;43.90;;;;;;6182827;23;20340;-78
2022/09/17 10:59:00;;;;;;;0.50;0.50;;;28.30;33.70;;;;;;6091146;23;20010;-78
2022/09/17 11:01:43;;;;;;;1.83;0.30;;;29.30;39.00;;;;;;6091073;23;20010;-78
2022/09/17 11:04:43;;;;;;;1.42;0.20;;;27.20;40.10;;;;;;6090646;23;20003;-78
2022/09/17 11:07:30;;;;;;;0.73;0.17;;;25.80;31.60;;;;;;6033399;23;20165;-78
2022/09/17 11:10:16;;;;;;;0.57;0.17;;;24.70;32.50;;;;;;6033618;23;20023;-77
2022/09/17 11:13:10;;;;;;;0.30;0.20;;;23.60;33.70;;;;;;6033470;23;20014;-75
2022/09/17 11:15:47;;;;;;;1.02;0.32;;;23.30;37.20;;;;;;6033248;23;20015;-75
2022/09/17 11:18:24;;;;;;;0.90;0.20;;;22.90;43.40;;;;;;6033615;23;20086;-75
2022/09/17 11:21:26;;;;;;;2.33;0.50;;;24.50;34.10;;;;;;6032849;23;20022;-76
2022/09/17 11:23:52;;;;;;;0.38;0.20;;;;;;;;;;6033527;23;20027;-75
2022/09/17 11:26:32;;;;;;;0.85;0.20;;;23.70;35.00;;;;;;6033460;23;20175;-76
2022/09/17 11:29:35;;;;;;;1.08;0.28;;;22.70;46.80;;;;;;6033300;23;20023;-75
2022/09/17 11:32:37;;;;;;;1.85;0.45;;;21.90;48.40;;;;;;6033522;23;20015;-75
2022/09/17 11:35:16;;;;;;;1.58;0.32;;;22.30;45.60;;;;;;6078645;23;20110;-75
2022/09/17 11:37:49;;;;;;;0.77;0.30;;;22.80;36.20;;;;;;6090959;23;20583;-75
2022/09/17 11:40:25;;;;;;;1.75;0.50;;;22.90;36.20;;;;;;6090388;23;20017;-75
2022/09/17 11:42:58;;;;;;;0.47;0.47;;;23.50;47.60;;;;;;6090489;23;20007;-75
2022/09/17 11:45:24;;;;;;;0.38;0.30;;;;;;;;;;6181362;23;20016;-75
2022/09/17 11:48:09;;;;;;;0.30;0.30;;;22.20;43.40;;;;;;6181983;23;20001;-75
2022/09/17 11:50:42;;;;;;;0.90;0.40;;;21.70;49.40;;;;;;6181732;23;20068;-75
2022/09/17 11:53:19;;;;;;;2.30;0.40;;;21.30;46.60;;;;;;6182508;23;20005;-75
2022/09/17 11:56:02;;;;;;;0.70;0.70;;;22.90;40.70;;;;;;6182407;23;20012;-76
2022/09/17 11:58:53;;;;;;;0.35;0.20;;;24.00;35.40;;;;;;6182765;23;20000;-76
2022/09/17 12:01:40;;;;;;;2.13;0.85;;;25.60;35.30;;;;;;6182170;23;20051;-76
2022/09/17 12:04:34;;;;;;;1.70;0.28;;;25.00;36.70;;;;;;6181976;23;19997;-75
2022/09/17 12:07:22;;;;;;;7.85;0.55;;;24.50;35.30;;;;;;6182490;23;20019;-75
2022/09/17 12:09:56;;;;;;;0.63;0.20;;;23.20;47.80;;;;;;6182080;23;20113;-75
2022/09/17 12:12:24;;;;;;;0.60;0.20;;;22.60;49.60;;;;;;6182053;23;20504;-75
2022/09/17 12:14:56;;;;;;;0.38;0.38;;;22.20;43.20;;;;;;6181545;23;20001;-76
2022/09/17 12:17:42;;;;;;;0.52;0.30;;;21.40;39.10;;;;;;6181974;23;20001;-75
2022/09/17 12:20:28;;;;;;;0.68;0.68;;;21.70;39.30;;;;;;6181529;23;20009;-75
2022/09/17 12:22:56;;;;;;;0.65;0.63;;;21.50;42.90;;;;;;6181850;23;20032;-76
2022/09/17 12:25:22;;;;;;;4.47;0.50;;;21.80;51.60;;;;;;6181852;23;20017;-75
2022/09/17 12:28:07;;;;;;;0.75;0.50;;;21.00;49.30;;;;;;6181952;23;19997;-75
2022/09/17 12:30:39;;;;;;;3.65;0.60;;;21.20;40.20;;;;;;6155244;23;20344;-76
2022/09/17 12:33:27;;;;;;;2.05;0.60;;;21.60;45.90;;;;;;6181746;23;20011;-75
2022/09/17 12:36:36;;;;;;;1.20;0.60;;;22.70;39.20;;;;;;6169541;23;20012;-75
2022/09/17 12:39:37;;;;;;;2.30;0.80;;;22.90;38.70;;;;;;6165906;23;20084;-75
2022/09/17 12:42:34;;;;;;;0.47;0.47;;;22.40;39.10;;;;;;6181706;23;20378;-75
2022/09/17 12:45:11;;;;;;;1.92;0.55;;;21.80;52.20;;;;;;6176621;23;20454;-75
2022/09/17 12:47:37;;;;;;;0.80;0.45;;;;;;;;;;6181738;23;20001;-75
2022/09/17 12:50:21;;;;;;;1.42;0.40;;;21.40;40.90;;;;;;6181792;23;20387;-75
2022/09/17 12:53:01;;;;;;;1.23;0.50;;;20.80;54.30;;;;;;6181460;23;20302;-75
2022/09/17 12:55:48;;;;;;;0.82;0.47;;;20.80;53.60;;;;;;6182097;23;20333;-75
2022/09/17 12:58:29;;;;;;;2.97;0.88;;;20.40;43.70;;;;;;6181739;23;20067;-75
2022/09/17 13:01:26;;;;;;;1.83;0.77;;;21.20;42.50;;;;;;6155158;23;20001;-75
2022/09/17 13:04:05;;;;;;;1.80;0.50;;;21.70;41.40;;;;;;6181775;23;20005;-75
2022/09/17 13:06:50;;;;;;;0.88;0.63;;;22.50;52.90;;;;;;6181501;23;20009;-76
2022/09/17 13:09:25;;;;;;;6.10;0.90;;;22.90;39.80;;;;;;6154978;23;20384;-75
2022/09/17 13:12:06;;;;;;;1.85;1.05;;;22.60;51.50;;;;;;6181692;23;20060;-75
2022/09/17 13:15:10;;;;;;;2.80;1.05;;;22.60;47.60;;;;;;6181202;23;20423;-75
2022/09/17 13:18:01;;;;;;;3.50;0.47;;;21.90;53.00;;;;;;6181394;23;20065;-75
2022/09/17 13:20:38;;;;;;;1.02;0.50;;;21.30;41.80;;;;;;6181645;23;20061;-75
2022/09/17 13:23:04;;;;;;;0.40;0.40;;;21.30;42.10;;;;;;6181452;23;19997;-75
2022/09/17 13:25:30;;;;;;;0.63;0.40;;;21.10;53.70;;;;;;6181619;23;20075;-75
2022/09/17 13:28:09;;;;;;;6.05;0.70;;;21.10;43.00;;;;;;6182304;23;20085;-75
2022/09/17 13:30:55;;;;;;;0.40;0.40;;;21.70;46.70;;;;;;6183159;23;20009;-76
2022/09/17 13:33:53;;;;;;;1.85;0.60;;;21.40;54.60;;;;;;6183288;23;20504;-76
2022/09/17 13:36:40;;;;;;;2.70;0.50;;;21.20;42.90;;;;;;6183490;23;20004;-75
2022/09/17 13:39:07;;;;;;;;;;;21.30;43.40;;;;;;6184502;23;20060;-75
2022/09/17 13:41:37;;;;;;;0.93;0.57;;;21.40;42.40;;;;;;6183141;23;19907;-76
2022/09/17 13:44:05;;;;;;;2.05;0.55;;;21.70;54.30;;;;;;6183393;23;20344;-75
2022/09/17 13:46:33;;;;;;;1.95;0.50;;;21.50;53.60;;;;;;6183080;23;20016;-75
2022/09/17 13:49:02;;;;;;;0.40;0.40;;;22.00;53.90;;;;;;6183407;23;20356;-75